createdAt,value
2023-06-10T00:04:52.105Z,17.69
2023-06-10T00:14:55.213Z,17.57
2023-06-10T00:25:00.593Z,17.44
2023-06-10T00:35:03.866Z,17.34
2023-06-10T00:45:07.544Z,17.19
2023-06-10T00:55:10.865Z,17.01
2023-06-10T01:05:13.593Z,16.81
2023-06-10T01:15:19.435Z,16.65
2023-06-10T01:25:29.074Z,16.53
2023-06-10T01:35:32.230Z,16.39
2023-06-10T01:45:34.472Z,16.23
2023-06-10T01:55:37.062Z,16.09
2023-06-10T02:05:39.448Z,15.97
2023-06-10T02:15:41.987Z,15.82
2023-06-10T02:25:44.375Z,15.69
2023-06-10T02:35:47.198Z,15.58
2023-06-10T02:45:49.715Z,15.48
2023-06-10T02:55:52.251Z,15.34
2023-06-10T03:05:55.047Z,15.22
2023-06-10T03:15:58.291Z,15.08
2023-06-10T03:26:02.013Z,14.98
2023-06-10T03:36:04.756Z,14.86
2023-06-10T03:46:07.438Z,14.76
2023-06-10T03:56:10.165Z,14.69
2023-06-10T04:06:12.767Z,14.64
2023-06-10T04:16:15.287Z,14.64
2023-06-10T04:26:17.763Z,14.69
2023-06-10T04:36:20.085Z,14.80
2023-06-10T04:46:22.715Z,14.99
2023-06-10T04:56:25.454Z,15.21
2023-06-10T05:06:27.802Z,15.49
2023-06-10T05:16:31.092Z,15.82
2023-06-10T05:26:34.583Z,16.17
2023-06-10T05:36:37.051Z,16.57
2023-06-10T05:46:39.430Z,17.03
2023-06-10T05:56:42.559Z,17.54
2023-06-10T06:06:44.948Z,18.00
2023-06-10T06:16:47.875Z,18.54
2023-06-10T06:26:50.413Z,19.11
2023-06-10T06:36:53.032Z,19.75
2023-06-10T06:46:55.950Z,20.25
2023-06-10T06:56:58.777Z,20.65
2023-06-10T07:07:01.243Z,21.04
2023-06-10T07:17:04.486Z,21.33
2023-06-10T07:27:08.869Z,21.71
2023-06-10T07:37:11.787Z,22.17
2023-06-10T07:47:14.510Z,22.42
2023-06-10T07:57:17.999Z,22.71
2023-06-10T08:07:20.774Z,22.94
2023-06-10T08:17:23.722Z,23.16
2023-06-10T08:27:26.698Z,23.49
2023-06-10T08:37:29.280Z,23.85
2023-06-10T08:47:37.883Z,24.11
2023-06-10T08:57:42.203Z,24.33
2023-06-10T09:07:45.929Z,24.56
2023-06-10T09:17:49.137Z,24.84
2023-06-10T09:27:55.369Z,25.21
2023-06-10T09:37:59.308Z,25.41
2023-06-10T09:48:02.431Z,25.62
2023-06-10T09:58:05.508Z,26.04
2023-06-10T10:08:08.289Z,26.38
2023-06-10T10:18:13.089Z,26.80
2023-06-10T10:28:17.811Z,27.07
2023-06-10T10:38:22.073Z,27.64
2023-06-10T10:48:25.279Z,28.03
2023-06-10T10:58:31.625Z,28.40
2023-06-10T11:08:34.717Z,28.84
2023-06-10T11:18:40.696Z,27.69
2023-06-10T11:28:44.310Z,27.46
2023-06-10T11:38:47.421Z,27.53
2023-06-10T11:48:51.769Z,28.46
2023-06-10T11:58:59.335Z,28.42
2023-06-10T12:09:14.075Z,28.58
2023-06-10T12:19:25.670Z,29.75
2023-06-10T12:29:30.691Z,30.48
2023-06-10T12:39:34.470Z,30.79
2023-06-10T12:49:39.056Z,31.32
2023-06-10T12:59:43.077Z,31.17
2023-06-10T13:09:45.985Z,31.41
2023-06-10T13:19:50.560Z,30.53
2023-06-10T13:29:54.055Z,31.17
2023-06-10T13:39:57.994Z,31.89
2023-06-10T13:50:01.263Z,32.25
2023-06-10T14:00:05.243Z,32.50
2023-06-10T14:10:10.860Z,33.49
2023-06-10T14:20:14.605Z,34.19
2023-06-10T14:30:17.360Z,33.88
2023-06-10T14:40:20.231Z,34.21
2023-06-10T14:50:24.269Z,34.49
2023-06-10T15:00:27.251Z,34.09
2023-06-10T15:10:29.826Z,32.35
2023-06-10T15:20:32.549Z,31.58
2023-06-10T15:30:36.384Z,31.42
2023-06-10T15:40:39.684Z,30.70
2023-06-10T15:50:42.942Z,30.20
2023-06-10T16:00:46.935Z,29.82
2023-06-10T16:10:49.947Z,29.17
2023-06-10T16:20:54.509Z,28.99
2023-06-10T16:30:57.397Z,28.89
2023-06-10T16:41:02.264Z,29.66
2023-06-10T16:51:08.141Z,29.64
2023-06-10T17:01:11.685Z,28.73
2023-06-10T17:11:14.522Z,28.18
2023-06-10T17:21:18.171Z,27.81
2023-06-10T17:31:21.246Z,27.82
2023-06-10T17:41:24.920Z,27.63
2023-06-10T17:51:29.199Z,27.72
2023-06-10T18:01:33.292Z,27.84
2023-06-10T18:11:36.634Z,26.84
2023-06-10T18:21:42.743Z,26.22
2023-06-10T18:31:46.509Z,25.86
2023-06-10T18:41:49.869Z,25.52
2023-06-10T18:51:54.121Z,24.94
2023-06-10T19:01:59.949Z,24.28
2023-06-10T19:12:04.977Z,23.82
2023-06-10T19:22:10.438Z,23.41
2023-06-10T19:32:14.368Z,23.03
2023-06-10T19:42:17.764Z,22.65
2023-06-10T19:52:22.081Z,22.06
2023-06-10T20:02:25.114Z,21.52
2023-06-10T20:12:28.772Z,21.09
2023-06-10T20:22:31.442Z,20.97
2023-06-10T20:32:34.470Z,20.82
2023-06-10T20:42:37.853Z,20.72
2023-06-10T20:52:41.791Z,20.65
2023-06-10T21:02:45.250Z,20.59
2023-06-10T21:12:49.717Z,20.41
2023-06-10T21:22:52.159Z,20.26
2023-06-10T21:32:55.266Z,20.12
2023-06-10T21:42:57.574Z,19.95
2023-06-10T21:53:01.480Z,19.85
2023-06-10T22:03:04.465Z,19.72
2023-06-10T22:13:10.457Z,19.59
2023-06-10T22:23:19.001Z,19.44
2023-06-10T22:33:21.595Z,19.28
2023-06-10T22:43:24.242Z,19.16
2023-06-10T22:53:27.398Z,19.00
2023-06-10T23:03:29.830Z,18.78
2023-06-10T23:13:32.369Z,18.54
2023-06-10T23:23:35.895Z,18.27
2023-06-10T23:33:40.310Z,18.01
2023-06-10T23:43:42.895Z,17.77
2023-06-10T23:53:45.162Z,17.56
